Time;durP1;ratioP1;P1;durP2;ratioP2;P2;SDS_P1;SDS_P2;PMS_P1;PMS_P2;Temp;Humidity;BMP_temperature;BMP_pressure;BME280_temperature;BME280_humidity;BME280_pressure;Samples;Min_cycle;Max_cycle;Signal;HPM_P1;HPM_P2
2023/08/11 00:06:48;;;;;;;;;;;;;;;19.14;77.29;102152.16;21001673;28;19932;-63
2023/08/11 00:17:10;;;;;;;;;;;;;;;19.08;77.25;102139.28;21010224;28;20063;-64
2023/08/11 00:27:32;;;;;;;;;;;;;;;19.10;77.75;102134.84;21016519;28;20518;-63
2023/08/11 00:37:53;;;;;;;;;;;;;;;19.08;77.69;102134.91;21027878;28;20415;-64
2023/08/11 00:48:15;;;;;;;;;;;;;;;19.08;78.23;102133.13;21018669;28;19982;-64
2023/08/11 00:58:37;;;;;;;;;;;;;;;19.08;77.82;102136.66;21021878;28;19947;-64
2023/08/11 01:09:05;;;;;;;;;;;;;;;19.11;78.28;102128.66;21022042;28;19924;-63
2023/08/11 01:19:46;;;;;;;;;;;;;;;19.10;77.89;102140.09;21018684;28;19928;-64
2023/08/11 01:30:07;;;;;;;;;;;;;;;19.12;79.81;102133.00;21003528;28;19929;-64
2023/08/11 01:40:29;;;;;;;;;;;;;;;19.08;78.80;102117.38;21012527;28;19935;-63
2023/08/11 01:50:50;;;;;;;;;;;;;;;19.06;79.23;102111.34;20989852;28;19928;-64
2023/08/11 02:01:13;;;;;;;;;;;;;;;19.02;78.83;102120.28;21021325;28;20007;-64
2023/08/11 02:11:35;;;;;;;;;;;;;;;19.00;79.64;102098.50;21001141;28;19967;-64
2023/08/11 02:21:56;;;;;;;;;;;;;;;18.98;79.44;102100.34;21010378;28;19925;-64
2023/08/11 02:32:19;;;;;;;;;;;;;;;19.00;80.11;102093.25;21005201;28;19963;-63
2023/08/11 02:42:45;;;;;;;;;;;;;;;19.02;78.99;102085.31;20992711;28;19931;-64
2023/08/11 02:53:07;;;;;;;;;;;;;;;18.96;79.32;102086.44;20990060;28;20472;-64
2023/08/11 03:03:29;;;;;;;;;;;;;;;18.94;80.45;102083.03;21007008;28;19928;-64
2023/08/11 03:13:50;;;;;;;;;;;;;;;18.93;80.00;102086.59;21013388;28;20011;-64
2023/08/11 03:24:12;;;;;;;;;;;;;;;18.94;80.34;102092.66;21020683;28;19924;-64
2023/08/11 03:34:35;;;;;;;;;;;;;;;18.93;80.49;102098.84;21031132;28;19979;-64
2023/08/11 03:44:56;;;;;;;;;;;;;;;18.94;81.08;102088.28;21027073;28;20396;-64
2023/08/11 03:55:18;;;;;;;;;;;;;;;18.91;81.54;102080.56;21029223;28;19943;-64
2023/08/11 04:05:39;;;;;;;;;;;;;;;18.91;81.92;102088.41;21020271;28;19928;-64
2023/08/11 04:16:01;;;;;;;;;;;;;;;18.88;81.45;102087.72;21019822;28;19930;-64
2023/08/11 04:26:22;;;;;;;;;;;;;;;18.88;81.52;102083.28;21036423;28;19924;-64
2023/08/11 04:36:44;;;;;;;;;;;;;;;18.76;83.20;102075.13;21022829;28;19935;-64
2023/08/11 04:47:06;;;;;;;;;;;;;;;18.62;83.61;102075.72;21032555;28;19928;-64
2023/08/11 04:57:28;;;;;;;;;;;;;;;18.51;83.83;102092.84;21018865;28;19932;-64
2023/08/11 05:07:50;;;;;;;;;;;;;;;18.45;84.04;102088.69;21018927;28;19955;-64
2023/08/11 05:18:11;;;;;;;;;;;;;;;18.46;84.44;102095.63;21012925;28;19966;-64
2023/08/11 05:28:33;;;;;;;;;;;;;;;18.46;84.73;102085.16;21003582;28;20592;-64
2023/08/11 05:38:54;;;;;;;;;;;;;;;18.49;83.33;102085.03;20997802;28;19924;-64
2023/08/11 05:49:16;;;;;;;;;;;;;;;18.60;83.70;102089.81;20993431;28;19928;-64
2023/08/11 05:59:37;;;;;;;;;;;;;;;18.68;84.25;102075.44;21001165;28;19924;-64
2023/08/11 06:09:59;;;;;;;;;;;;;;;18.90;81.50;102089.31;21017866;28;19928;-64
2023/08/11 06:20:23;;;;;;;;;;;;;;;19.11;81.30;102089.28;21011427;28;19924;-64
2023/08/11 06:31:02;;;;;;;;;;;;;;;19.33;80.64;102079.53;21029518;28;20078;-63
2023/08/11 06:41:23;;;;;;;;;;;;;;;19.59;79.29;102073.94;21007126;28;19993;-64
2023/08/11 06:51:45;;;;;;;;;;;;;;;19.84;79.05;102067.44;21008229;28;19936;-64
2023/08/11 07:02:06;;;;;;;;;;;;;;;20.10;79.39;102073.19;21013728;28;19924;-64
2023/08/11 07:12:28;;;;;;;;;;;;;;;20.39;77.68;102080.50;21002200;28;19967;-64
2023/08/11 07:22:49;;;;;;;;;;;;;;;20.58;77.52;102092.66;21006071;28;19935;-64
2023/08/11 07:33:11;;;;;;;;;;;;;;;20.83;76.22;102071.16;21006821;28;20030;-64
2023/08/11 07:43:32;;;;;;;;;;;;;;;21.00;75.42;102069.34;21006611;28;19928;-64
2023/08/11 07:53:54;;;;;;;;;;;;;;;21.11;76.27;102055.63;21012319;28;19932;-64
2023/08/11 08:04:17;;;;;;;;;;;;;;;21.30;74.96;102056.31;21009381;28;19967;-64
2023/08/11 08:14:38;;;;;;;;;;;;;;;21.57;72.98;102059.22;21032952;28;19931;-64
2023/08/11 08:25:00;;;;;;;;;;;;;;;21.82;72.76;102054.28;21010572;28;19939;-64
2023/08/11 08:35:21;;;;;;;;;;;;;;;22.11;72.72;102047.31;21017460;28;20238;-64
2023/08/11 08:45:43;;;;;;;;;;;;;;;22.19;72.20;102048.59;21024840;28;20353;-64
2023/08/11 08:56:05;;;;;;;;;;;;;;;22.49;70.85;102048.53;21019125;28;19934;-64
2023/08/11 09:06:27;;;;;;;;;;;;;;;22.66;71.22;102053.69;21004687;28;20269;-64
2023/08/11 09:16:52;;;;;;;;;;;;;;;22.90;69.24;102058.34;21019933;28;19931;-64
2023/08/11 09:27:14;;;;;;;;;;;;;;;23.25;69.38;102063.19;21017610;28;19935;-64
2023/08/11 09:37:36;;;;;;;;;;;;;;;23.39;67.56;102060.56;21014979;28;19924;-64
2023/08/11 09:47:58;;;;;;;;;;;;;;;23.63;68.32;102043.13;21003907;28;19976;-65
2023/08/11 09:58:24;;;;;;;;;;;;;;;23.74;67.32;102035.34;21016637;28;19936;-64
2023/08/11 10:08:48;;;;;;;;;;;;;;;23.93;68.35;102030.56;21012777;28;19982;-65
2023/08/11 10:19:11;;;;;;;;;;;;;;;24.17;67.01;102033.38;21004810;28;19933;-65
2023/08/11 10:29:34;;;;;;;;;;;;;;;24.47;66.54;102024.19;21008995;28;19931;-65
2023/08/11 10:40:02;;;;;;;;;;;;;;;24.76;66.28;102028.34;21012770;28;19924;-65
2023/08/11 10:50:25;;;;;;;;;;;;;;;24.89;64.99;102008.00;21018267;28;19924;-66
2023/08/11 11:00:47;;;;;;;;;;;;;;;25.31;64.61;102014.66;20994922;28;19924;-64
2023/08/11 11:11:09;;;;;;;;;;;;;;;25.47;64.21;101998.53;21010904;28;19943;-64
2023/08/11 11:21:30;;;;;;;;;;;;;;;25.69;64.92;102009.25;21010509;28;19928;-64
2023/08/11 11:31:52;;;;;;;;;;;;;;;25.97;65.03;101992.09;21006795;28;19974;-64
2023/08/11 11:42:14;;;;;;;;;;;;;;;26.37;63.99;101977.50;21034328;28;19962;-64
2023/08/11 11:52:36;;;;;;;;;;;;;;;26.56;63.34;101991.00;21042421;28;20592;-64
2023/08/11 12:02:58;;;;;;;;;;;;;;;26.76;60.55;101971.72;21027430;28;19978;-64
2023/08/11 12:13:20;;;;;;;;;;;;;;;26.96;59.34;101984.25;21021858;28;19959;-64
2023/08/11 12:23:41;;;;;;;;;;;;;;;26.88;61.96;101980.53;21031614;28;20048;-64
2023/08/11 12:34:03;;;;;;;;;;;;;;;26.71;62.61;101974.75;21026135;28;19924;-65
2023/08/11 12:44:24;;;;;;;;;;;;;;;26.64;62.60;101968.22;21031967;28;19989;-65
2023/08/11 12:54:46;;;;;;;;;;;;;;;26.62;59.78;101948.91;21016165;28;19928;-65
2023/08/11 13:05:07;;;;;;;;;;;;;;;26.83;62.08;101941.03;21021690;28;20296;-65
2023/08/11 13:15:29;;;;;;;;;;;;;;;26.90;62.15;101930.78;21008871;28;19928;-65
2023/08/11 13:25:50;;;;;;;;;;;;;;;26.89;63.54;101923.75;21020677;28;19939;-65
2023/08/11 13:36:12;;;;;;;;;;;;;;;26.96;62.73;101924.97;21008029;28;19924;-64
2023/08/11 13:46:33;;;;;;;;;;;;;;;26.80;62.14;101904.94;21016978;28;19924;-64
2023/08/11 13:56:55;;;;;;;;;;;;;;;27.02;62.79;101903.19;21014774;28;19924;-65
2023/08/11 14:07:16;;;;;;;;;;;;;;;27.20;62.52;101891.88;21000241;28;19932;-65
2023/08/11 14:17:51;;;;;;;;;;;;;;;27.35;62.01;101889.81;21025101;28;19976;-64
2023/08/11 14:28:12;;;;;;;;;;;;;;;27.21;62.82;101887.41;21004075;28;19924;-64
2023/08/11 14:38:34;;;;;;;;;;;;;;;27.57;58.49;101887.03;21010086;28;19924;-64
2023/08/11 14:48:55;;;;;;;;;;;;;;;27.54;60.32;101866.03;21007497;28;20043;-64
2023/08/11 14:59:17;;;;;;;;;;;;;;;27.41;61.97;101846.75;21013177;28;20037;-64
2023/08/11 15:09:38;;;;;;;;;;;;;;;27.67;61.15;101842.72;21007999;28;20407;-64
2023/08/11 15:20:00;;;;;;;;;;;;;;;27.67;61.83;101845.38;21008512;28;20131;-64
2023/08/11 15:30:22;;;;;;;;;;;;;;;27.85;58.35;101829.66;20992613;28;19939;-64
2023/08/11 15:40:44;;;;;;;;;;;;;;;28.08;57.17;101832.03;21006620;28;19925;-64
2023/08/11 15:51:05;;;;;;;;;;;;;;;27.93;54.21;101822.69;20997610;28;19935;-64
2023/08/11 16:01:26;;;;;;;;;;;;;;;28.01;59.76;101828.22;21006562;28;20019;-63
2023/08/11 16:11:48;;;;;;;;;;;;;;;27.84;60.08;101812.81;21003423;28;20034;-64
2023/08/11 16:22:11;;;;;;;;;;;;;;;28.03;60.63;101818.28;21007201;28;19924;-65
2023/08/11 16:32:33;;;;;;;;;;;;;;;27.85;59.48;101809.22;21034982;28;19932;-64
2023/08/11 16:42:54;;;;;;;;;;;;;;;27.72;59.26;101821.88;21023473;28;19932;-63
2023/08/11 16:53:16;;;;;;;;;;;;;;;27.44;62.45;101814.56;21028931;28;19967;-63
2023/08/11 17:03:37;;;;;;;;;;;;;;;27.19;63.17;101809.59;21019813;28;19928;-64
2023/08/11 17:13:59;;;;;;;;;;;;;;;27.05;63.74;101801.94;21025253;28;19930;-63
2023/08/11 17:24:20;;;;;;;;;;;;;;;26.87;64.33;101798.97;20996642;28;20463;-64
2023/08/11 17:34:44;;;;;;;;;;;;;;;26.72;64.97;101790.47;21001113;28;20227;-64
2023/08/11 17:45:18;;;;;;;;;;;;;;;26.55;65.77;101790.97;21020575;28;19977;-64
2023/08/11 17:55:39;;;;;;;;;;;;;;;26.38;66.16;101799.47;21017658;28;19924;-63
2023/08/11 18:06:01;;;;;;;;;;;;;;;26.18;66.29;101800.22;21017655;28;20422;-65
2023/08/11 18:16:23;;;;;;;;;;;;;;;26.07;66.85;101799.38;21007407;28;19928;-65
2023/08/11 18:26:44;;;;;;;;;;;;;;;25.97;66.69;101796.56;21032050;28;19924;-65
2023/08/11 18:37:06;;;;;;;;;;;;;;;25.83;67.14;101810.06;21017700;28;19924;-65
2023/08/11 18:47:27;;;;;;;;;;;;;;;25.71;67.05;101800.44;21005011;28;19928;-66
2023/08/11 18:57:52;;;;;;;;;;;;;;;25.52;67.46;101795.69;21008704;28;20018;-65
2023/08/11 19:08:13;;;;;;;;;;;;;;;25.34;68.25;101804.19;20999244;28;19939;-65
2023/08/11 19:18:37;;;;;;;;;;;;;;;25.21;68.50;101803.41;21021038;28;19924;-65
2023/08/11 19:28:59;;;;;;;;;;;;;;;25.10;68.39;101798.06;21013655;28;19934;-65
2023/08/11 19:39:21;;;;;;;;;;;;;;;24.97;68.75;101802.59;21002154;28;19931;-65
2023/08/11 19:49:42;;;;;;;;;;;;;;;24.83;69.47;101801.81;21006210;28;19938;-65
2023/08/11 20:00:04;;;;;;;;;;;;;;;24.76;69.75;101800.59;21013384;28;19932;-65
2023/08/11 20:10:26;;;;;;;;;;;;;;;24.68;69.99;101783.53;21005518;28;20007;-65
2023/08/11 20:20:47;;;;;;;;;;;;;;;24.63;70.15;101775.09;21026820;28;19931;-66
2023/08/11 20:31:09;;;;;;;;;;;;;;;24.58;70.59;101786.00;21023765;28;19924;-66
2023/08/11 20:41:30;;;;;;;;;;;;;;;24.51;70.65;101778.63;21007205;28;19924;-65
2023/08/11 20:51:53;;;;;;;;;;;;;;;24.42;70.58;101772.22;21016624;28;20661;-66
2023/08/11 21:02:15;;;;;;;;;;;;;;;24.33;71.41;101764.09;21028736;28;19924;-65
2023/08/11 21:12:36;;;;;;;;;;;;;;;24.29;71.43;101762.63;21025373;28;19935;-65
2023/08/11 21:22:58;;;;;;;;;;;;;;;24.36;68.86;101772.66;21022376;28;20391;-66
2023/08/11 21:33:19;;;;;;;;;;;;;;;24.33;70.15;101778.19;21007986;28;19979;-65
2023/08/11 21:43:40;;;;;;;;;;;;;;;24.25;70.38;101772.56;21011227;28;20373;-66
2023/08/11 21:54:03;;;;;;;;;;;;;;;24.15;70.14;101786.59;21005927;28;20017;-65
2023/08/11 22:04:24;;;;;;;;;;;;;;;23.76;73.15;101787.56;21014372;28;20486;-65
2023/08/11 22:14:46;;;;;;;;;;;;;;;23.43;74.91;101792.50;21012331;28;19928;-66
2023/08/11 22:25:08;;;;;;;;;;;;;;;23.24;76.78;101776.19;21005743;28;19925;-66
2023/08/11 22:35:29;;;;;;;;;;;;;;;23.14;77.75;101785.69;20999238;28;19928;-65
2023/08/11 22:45:50;;;;;;;;;;;;;;;23.02;77.77;101787.31;21014156;28;19928;-66
2023/08/11 22:56:12;;;;;;;;;;;;;;;22.88;78.14;101779.47;20996104;28;19939;-66
2023/08/11 23:06:33;;;;;;;;;;;;;;;22.90;78.78;101773.16;21014597;28;19924;-63
2023/08/11 23:16:56;;;;;;;;;;;;;;;22.83;79.00;101792.16;21003665;28;20307;-66
2023/08/11 23:27:18;;;;;;;;;;;;;;;22.81;78.71;101797.53;21009447;28;19934;-65
2023/08/11 23:37:39;;;;;;;;;;;;;;;22.73;79.17;101797.19;21029641;28;20304;-65
2023/08/11 23:48:01;;;;;;;;;;;;;;;22.61;80.12;101787.44;21019507;28;19928;-65
2023/08/11 23:58:23;;;;;;;;;;;;;;;22.60;80.53;101769.88;21023965;28;19932;-65
